createdAt,value
2022-10-19T00:00:35.231Z,0.00
2022-10-19T00:01:30.312Z,0.00
2022-10-19T00:02:25.701Z,0.00
2022-10-19T00:03:23.219Z,0.00
2022-10-19T00:04:16.177Z,0.00
2022-10-19T00:05:11.272Z,0.00
2022-10-19T00:06:06.514Z,0.00
2022-10-19T00:07:05.275Z,0.00
2022-10-19T00:08:00.324Z,0.00
2022-10-19T00:08:55.562Z,0.00
2022-10-19T00:09:51.492Z,0.00
2022-10-19T00:10:46.605Z,0.00
2022-10-19T00:11:41.938Z,0.00
2022-10-19T00:12:38.185Z,0.00
2022-10-19T00:13:33.354Z,0.00
2022-10-19T00:14:29.360Z,0.00
2022-10-19T00:15:24.514Z,0.00
2022-10-19T00:16:19.870Z,0.00
2022-10-19T00:17:15.508Z,0.00
2022-10-19T00:18:10.741Z,0.00
2022-10-19T00:19:06.545Z,0.00
2022-10-19T00:20:01.686Z,0.00
2022-10-19T00:20:57.128Z,0.00
2022-10-19T00:21:52.887Z,0.00
2022-10-19T00:22:48.034Z,0.00
2022-10-19T00:23:43.219Z,0.00
2022-10-19T00:24:39.667Z,0.00
2022-10-19T00:25:34.895Z,0.00
2022-10-19T00:26:30.734Z,0.00
2022-10-19T00:27:25.999Z,0.00
2022-10-19T00:28:21.193Z,0.00
2022-10-19T00:29:16.914Z,0.00
2022-10-19T00:30:12.092Z,0.00
2022-10-19T00:31:07.939Z,0.00
2022-10-19T00:32:03.076Z,0.00
2022-10-19T00:32:58.454Z,0.00
2022-10-19T00:33:54.182Z,0.00
2022-10-19T00:34:49.333Z,0.00
2022-10-19T00:35:44.568Z,0.00
2022-10-19T00:36:41.005Z,0.00
2022-10-19T00:37:36.230Z,0.00
2022-10-19T00:38:31.483Z,0.00
2022-10-19T00:39:27.275Z,0.00
2022-10-19T00:40:22.651Z,0.00
2022-10-19T00:41:18.542Z,0.00
2022-10-19T00:42:13.612Z,0.00
2022-10-19T00:43:09.093Z,0.00
2022-10-19T00:44:04.860Z,0.00
2022-10-19T00:45:00.084Z,0.00
2022-10-19T00:45:55.415Z,0.00
2022-10-19T00:46:51.654Z,0.00
2022-10-19T00:47:46.893Z,0.00
2022-10-19T00:48:42.725Z,0.00
2022-10-19T00:49:37.910Z,0.00
2022-10-19T00:50:33.400Z,0.00
2022-10-19T00:51:28.619Z,0.00
2022-10-19T00:52:23.703Z,0.00
2022-10-19T00:53:18.810Z,0.00
2022-10-19T00:54:13.813Z,0.00
2022-10-19T00:55:08.888Z,0.00
2022-10-19T00:56:03.928Z,0.00
2022-10-19T00:56:59.080Z,0.00
2022-10-19T00:57:54.059Z,0.00
2022-10-19T00:58:54.396Z,0.00
2022-10-19T00:59:49.669Z,0.00
2022-10-19T01:00:44.948Z,0.00
2022-10-19T01:01:40.119Z,0.00
2022-10-19T01:02:35.307Z,0.00
2022-10-19T01:03:30.201Z,0.00
2022-10-19T01:04:25.284Z,0.00
2022-10-19T01:05:20.363Z,0.00
2022-10-19T01:06:15.485Z,0.00
2022-10-19T01:07:10.557Z,0.00
2022-10-19T01:08:05.981Z,0.00
2022-10-19T01:09:00.786Z,0.00
2022-10-19T01:09:55.943Z,0.00
2022-10-19T01:10:51.017Z,0.00
2022-10-19T01:11:46.064Z,0.00
2022-10-19T01:12:41.307Z,0.00
2022-10-19T01:13:36.271Z,0.00
2022-10-19T01:14:31.468Z,0.00
2022-10-19T01:15:26.761Z,0.00
2022-10-19T01:16:21.978Z,0.00
2022-10-19T01:17:17.030Z,0.00
2022-10-19T01:18:15.006Z,0.00
2022-10-19T01:19:10.098Z,0.00
2022-10-19T01:20:05.127Z,0.00
2022-10-19T01:21:00.180Z,0.00
2022-10-19T01:21:55.235Z,0.00
2022-10-19T01:22:50.278Z,0.00
2022-10-19T01:23:45.289Z,0.00
2022-10-19T01:24:40.805Z,0.00
2022-10-19T01:25:35.390Z,0.00
2022-10-19T01:26:30.562Z,0.00
2022-10-19T01:27:25.460Z,0.00
2022-10-19T01:28:20.557Z,0.00
2022-10-19T01:29:15.597Z,0.00
2022-10-19T01:30:10.686Z,0.00
2022-10-19T01:31:05.738Z,0.00
2022-10-19T01:32:00.816Z,0.00
2022-10-19T01:32:57.619Z,0.00
2022-10-19T01:33:52.788Z,0.00
2022-10-19T01:34:47.823Z,0.00
2022-10-19T01:35:42.902Z,0.00
2022-10-19T01:36:37.977Z,0.00
2022-10-19T01:37:33.429Z,0.00
2022-10-19T01:38:28.065Z,0.00
2022-10-19T01:39:23.150Z,0.00
2022-10-19T01:40:18.316Z,0.00
2022-10-19T01:41:13.521Z,0.00
2022-10-19T01:42:08.577Z,0.00
2022-10-19T01:43:03.632Z,0.00
2022-10-19T01:43:58.692Z,0.00
2022-10-19T01:44:53.701Z,0.00
2022-10-19T01:45:48.790Z,0.00
2022-10-19T01:46:44.524Z,0.00
2022-10-19T01:47:39.702Z,0.00
2022-10-19T01:48:35.558Z,0.00
2022-10-19T01:49:30.717Z,0.00
2022-10-19T01:50:26.088Z,0.00
2022-10-19T01:51:21.841Z,0.00
2022-10-19T01:52:17.072Z,0.00
2022-10-19T01:53:12.215Z,0.00
2022-10-19T01:54:08.661Z,0.00
2022-10-19T01:55:03.983Z,0.00
2022-10-19T01:55:59.689Z,0.00
2022-10-19T01:56:54.854Z,0.00
2022-10-19T01:57:50.007Z,0.00
2022-10-19T01:58:45.883Z,0.00
2022-10-19T01:59:41.143Z,0.00
2022-10-19T02:00:37.034Z,0.00
2022-10-19T02:01:32.116Z,0.00
2022-10-19T02:02:27.581Z,0.00
2022-10-19T02:03:23.396Z,0.00
2022-10-19T02:04:18.629Z,0.00
2022-10-19T02:05:13.957Z,0.00
2022-10-19T02:06:10.263Z,0.00
2022-10-19T02:07:05.488Z,0.00
2022-10-19T02:08:01.287Z,0.00
2022-10-19T02:08:56.511Z,0.00
2022-10-19T02:09:51.968Z,0.00
2022-10-19T02:10:47.632Z,0.00
2022-10-19T02:11:45.167Z,0.00
2022-10-19T02:12:39.681Z,0.00
2022-10-19T02:13:33.946Z,0.00
2022-10-19T02:14:29.363Z,0.00
2022-10-19T02:15:26.002Z,0.00
2022-10-19T02:16:21.351Z,0.00
2022-10-19T02:17:16.580Z,0.00
2022-10-19T02:18:12.902Z,0.00
2022-10-19T02:19:08.176Z,0.00
2022-10-19T02:20:03.939Z,0.00
2022-10-19T02:20:59.078Z,0.00
2022-10-19T02:21:54.331Z,0.00
2022-10-19T02:22:50.121Z,0.00
2022-10-19T02:23:46.170Z,0.00
2022-10-19T02:24:41.210Z,0.00
2022-10-19T02:25:36.529Z,0.00
2022-10-19T02:26:31.937Z,0.00
2022-10-19T02:27:27.605Z,0.00
2022-10-19T02:28:22.915Z,0.00
2022-10-19T02:29:18.139Z,0.00
2022-10-19T02:30:13.347Z,0.00
2022-10-19T02:31:09.836Z,0.00
2022-10-19T02:32:05.044Z,0.00
2022-10-19T02:33:00.289Z,0.00
2022-10-19T02:33:56.071Z,0.00
2022-10-19T02:34:51.315Z,0.00
2022-10-19T02:35:46.535Z,0.00
2022-10-19T02:36:42.852Z,0.00
2022-10-19T02:37:38.125Z,0.00
2022-10-19T02:38:33.915Z,0.00
2022-10-19T02:39:29.451Z,0.00
2022-10-19T02:40:24.577Z,0.00
2022-10-19T02:41:20.358Z,0.00
2022-10-19T02:42:15.607Z,0.00
2022-10-19T02:43:11.370Z,0.00
2022-10-19T02:44:06.600Z,0.00
2022-10-19T02:45:01.989Z,0.00
2022-10-19T02:45:57.907Z,0.00
2022-10-19T02:46:52.997Z,0.00
2022-10-19T02:47:48.218Z,0.00
2022-10-19T02:48:43.400Z,0.00
2022-10-19T02:49:38.669Z,0.00
2022-10-19T02:50:34.031Z,0.00
2022-10-19T02:51:29.737Z,0.00
2022-10-19T02:52:24.699Z,0.00
2022-10-19T02:53:20.484Z,0.00
2022-10-19T02:54:15.714Z,0.00
2022-10-19T02:55:10.949Z,0.00
2022-10-19T02:56:06.184Z,0.00
2022-10-19T02:57:01.199Z,0.00
2022-10-19T02:57:56.256Z,0.00
2022-10-19T02:58:51.368Z,0.00
2022-10-19T02:59:46.449Z,0.00
2022-10-19T03:00:41.629Z,0.00
2022-10-19T03:01:36.584Z,0.00
2022-10-19T03:02:31.559Z,0.00
2022-10-19T03:03:26.653Z,0.00
2022-10-19T03:04:21.772Z,0.00
2022-10-19T03:05:16.882Z,0.00
2022-10-19T03:06:11.983Z,0.00
2022-10-19T03:07:07.097Z,0.00
2022-10-19T03:08:02.238Z,0.00
2022-10-19T03:08:57.225Z,0.00
2022-10-19T03:09:52.330Z,0.00
2022-10-19T03:10:47.415Z,0.00
2022-10-19T03:11:42.414Z,0.00
2022-10-19T03:12:37.505Z,0.00
2022-10-19T03:13:32.594Z,0.00
2022-10-19T03:14:27.694Z,0.00
2022-10-19T03:15:22.799Z,0.00
2022-10-19T03:16:17.894Z,0.00
2022-10-19T03:17:13.086Z,0.00
2022-10-19T03:18:08.430Z,0.00
2022-10-19T03:19:03.586Z,0.00
2022-10-19T03:19:58.928Z,0.00
2022-10-19T03:20:54.060Z,0.00
2022-10-19T03:21:49.311Z,0.00
2022-10-19T03:22:44.526Z,0.00
2022-10-19T03:23:39.768Z,0.00
2022-10-19T03:24:35.001Z,0.00
2022-10-19T03:25:30.240Z,0.00
2022-10-19T03:26:25.900Z,0.00
2022-10-19T03:27:21.114Z,0.00
2022-10-19T03:28:16.480Z,0.00
2022-10-19T03:29:11.874Z,0.00
2022-10-19T03:30:06.825Z,0.00
2022-10-19T03:31:02.086Z,0.00
2022-10-19T03:31:57.343Z,0.00
2022-10-19T03:32:52.577Z,0.00
2022-10-19T03:33:47.815Z,0.00
2022-10-19T03:34:43.144Z,0.00
2022-10-19T03:35:38.527Z,0.00
2022-10-19T03:36:33.642Z,0.00
2022-10-19T03:37:28.863Z,0.00
2022-10-19T03:38:24.225Z,0.00
2022-10-19T03:39:19.441Z,0.00
2022-10-19T03:40:14.650Z,0.00
2022-10-19T03:41:09.926Z,0.00
2022-10-19T03:42:05.307Z,0.00
2022-10-19T03:43:00.518Z,0.00
2022-10-19T03:43:55.805Z,0.00
2022-10-19T03:44:51.000Z,0.00
2022-10-19T03:45:46.230Z,0.00
2022-10-19T03:46:41.460Z,0.00
2022-10-19T03:47:36.903Z,0.00
2022-10-19T03:48:31.918Z,0.00
2022-10-19T03:49:27.158Z,0.00
2022-10-19T03:50:22.500Z,0.00
2022-10-19T03:51:17.661Z,0.00
2022-10-19T03:52:12.867Z,0.00
2022-10-19T03:53:08.112Z,0.00
2022-10-19T03:54:03.200Z,0.00
2022-10-19T03:54:58.274Z,0.00
2022-10-19T03:55:53.387Z,0.00
2022-10-19T03:56:48.457Z,0.00
2022-10-19T03:57:43.696Z,0.00
2022-10-19T03:58:38.849Z,0.00
2022-10-19T03:59:34.088Z,0.00
2022-10-19T04:00:29.902Z,0.00
2022-10-19T04:01:25.077Z,0.00
2022-10-19T04:02:20.065Z,0.00
2022-10-19T04:03:15.176Z,0.00
2022-10-19T04:04:10.308Z,0.00
2022-10-19T04:05:05.371Z,0.00
2022-10-19T04:06:00.545Z,0.00
2022-10-19T04:06:55.456Z,0.00
2022-10-19T04:07:50.633Z,0.00
2022-10-19T04:08:45.683Z,0.00
2022-10-19T04:09:40.786Z,0.00
2022-10-19T04:10:36.007Z,0.00
2022-10-19T04:11:31.353Z,0.00
2022-10-19T04:12:26.592Z,0.00
2022-10-19T04:13:21.853Z,0.00
2022-10-19T04:14:26.727Z,0.00
2022-10-19T04:15:13.355Z,0.00
2022-10-19T04:16:08.187Z,0.00
2022-10-19T04:17:03.014Z,0.00
2022-10-19T04:17:58.179Z,0.00
2022-10-19T04:18:53.426Z,0.00
2022-10-19T04:19:48.686Z,0.00
2022-10-19T04:20:43.931Z,0.00
2022-10-19T04:21:39.145Z,0.00
2022-10-19T04:22:34.448Z,0.00
2022-10-19T04:23:29.661Z,0.00
2022-10-19T04:24:24.908Z,0.00
2022-10-19T04:25:20.143Z,0.00
2022-10-19T04:26:15.336Z,0.00
2022-10-19T04:27:10.721Z,0.00
2022-10-19T04:28:05.826Z,0.00
2022-10-19T04:29:01.128Z,0.00
2022-10-19T04:29:56.369Z,0.00
2022-10-19T04:30:51.788Z,0.00
2022-10-19T04:31:47.015Z,0.00
2022-10-19T04:32:42.314Z,0.00
2022-10-19T04:33:37.582Z,0.00
2022-10-19T04:34:35.223Z,0.00
2022-10-19T04:35:28.052Z,0.00
2022-10-19T04:36:23.292Z,0.00
2022-10-19T04:37:18.662Z,0.00
2022-10-19T04:38:13.875Z,0.00
2022-10-19T04:39:09.111Z,0.00
2022-10-19T04:40:04.320Z,0.00
2022-10-19T04:40:59.676Z,0.00
2022-10-19T04:41:54.821Z,0.00
2022-10-19T04:42:50.060Z,0.00
2022-10-19T04:43:45.370Z,0.00
2022-10-19T04:44:40.572Z,0.00
2022-10-19T04:45:35.915Z,0.00
2022-10-19T04:46:31.175Z,0.00
2022-10-19T04:47:26.566Z,0.00
2022-10-19T04:48:21.774Z,0.00
2022-10-19T04:49:19.476Z,0.00
2022-10-19T04:50:12.308Z,0.00
2022-10-19T04:51:07.688Z,0.00
2022-10-19T04:52:02.771Z,0.00
2022-10-19T04:52:58.002Z,0.00
2022-10-19T04:53:54.485Z,0.00
2022-10-19T04:54:48.519Z,0.00
2022-10-19T04:55:43.858Z,0.00
2022-10-19T04:56:39.094Z,0.00
2022-10-19T04:57:34.621Z,0.00
2022-10-19T04:58:29.486Z,0.00
2022-10-19T04:59:24.436Z,0.00
2022-10-19T05:00:19.584Z,0.00
2022-10-19T05:01:14.593Z,0.00
2022-10-19T05:02:09.536Z,0.00
2022-10-19T05:03:04.644Z,0.00
2022-10-19T05:03:59.766Z,0.00
2022-10-19T05:04:55.106Z,0.00
2022-10-19T05:05:50.232Z,0.00
2022-10-19T05:06:45.242Z,0.00
2022-10-19T05:07:40.369Z,0.00
2022-10-19T05:08:35.443Z,0.00
2022-10-19T05:09:30.606Z,1.00
2022-10-19T05:10:25.603Z,1.00
2022-10-19T05:11:20.684Z,1.00
2022-10-19T05:12:15.762Z,0.00
2022-10-19T05:13:10.883Z,0.00
2022-10-19T05:14:05.950Z,1.00
2022-10-19T05:15:00.936Z,1.00
2022-10-19T05:15:56.035Z,1.00
2022-10-19T05:16:51.252Z,1.00
2022-10-19T05:17:46.504Z,2.00
2022-10-19T05:18:41.730Z,2.00
2022-10-19T05:19:37.283Z,2.00
2022-10-19T05:20:32.393Z,2.00
2022-10-19T05:21:27.613Z,3.00
2022-10-19T05:22:22.908Z,3.00
2022-10-19T05:23:18.171Z,4.00
2022-10-19T05:24:13.391Z,4.00
2022-10-19T05:25:08.634Z,4.00
2022-10-19T05:26:03.857Z,6.00
2022-10-19T05:26:59.133Z,7.00
2022-10-19T05:27:54.434Z,9.00
2022-10-19T05:28:49.702Z,9.00
2022-10-19T05:29:45.169Z,11.00
2022-10-19T05:30:40.335Z,13.00
2022-10-19T05:31:37.009Z,16.00
2022-10-19T05:32:32.419Z,19.00
2022-10-19T05:33:27.654Z,22.00
2022-10-19T05:34:22.944Z,23.00
2022-10-19T05:35:21.545Z,33.00
2022-10-19T05:36:13.352Z,33.00
2022-10-19T05:37:08.403Z,41.00
2022-10-19T05:38:03.450Z,46.00
2022-10-19T05:38:58.472Z,54.00
2022-10-19T05:39:53.532Z,56.00
2022-10-19T05:40:52.881Z,65.00
2022-10-19T05:41:44.711Z,63.00
2022-10-19T05:42:38.779Z,70.00
2022-10-19T05:43:33.784Z,72.00
2022-10-19T05:44:28.940Z,79.00
2022-10-19T05:45:26.174Z,88.00
2022-10-19T05:46:21.171Z,89.00
2022-10-19T05:47:16.253Z,96.00
2022-10-19T05:48:11.291Z,110.00
2022-10-19T05:49:06.407Z,122.00
2022-10-19T05:50:01.384Z,131.00
2022-10-19T05:50:56.466Z,143.00
2022-10-19T05:51:51.907Z,157.00
2022-10-19T05:52:54.253Z,166.00
2022-10-19T05:53:42.726Z,171.00
2022-10-19T05:54:38.126Z,178.00
2022-10-19T05:55:33.500Z,201.00
2022-10-19T05:56:28.987Z,199.00
2022-10-19T05:57:24.246Z,212.00
2022-10-19T05:58:20.966Z,209.00
2022-10-19T05:59:16.384Z,235.00
2022-10-19T06:00:11.785Z,235.00
2022-10-19T06:01:07.054Z,252.00
2022-10-19T06:02:02.685Z,269.00
2022-10-19T06:02:59.208Z,320.00
2022-10-19T06:03:53.107Z,400.00
2022-10-19T06:04:48.155Z,459.00
2022-10-19T06:05:43.279Z,435.00
2022-10-19T06:06:38.333Z,427.00
2022-10-19T06:07:33.720Z,427.00
2022-10-19T06:08:28.366Z,452.00
2022-10-19T06:09:23.342Z,472.00
2022-10-19T06:10:18.476Z,501.00
2022-10-19T06:12:40.343Z,548.00
2022-10-19T06:13:35.593Z,546.00
2022-10-19T06:14:30.960Z,595.00
2022-10-19T06:15:26.363Z,551.00
2022-10-19T06:16:21.793Z,525.00
2022-10-19T06:17:17.187Z,524.00
2022-10-19T06:18:12.595Z,576.00
2022-10-19T06:19:07.987Z,595.00
2022-10-19T06:20:03.411Z,574.00
2022-10-19T06:20:58.980Z,607.00
2022-10-19T06:21:54.393Z,638.00
2022-10-19T06:22:49.807Z,627.00
2022-10-19T06:23:45.199Z,627.00
2022-10-19T06:24:40.559Z,613.00
2022-10-19T06:25:36.121Z,613.00
2022-10-19T06:26:31.383Z,638.00
2022-10-19T06:27:26.841Z,725.00
2022-10-19T06:28:22.274Z,670.00
2022-10-19T06:29:17.687Z,674.00
2022-10-19T06:30:13.172Z,693.00
2022-10-19T06:31:09.312Z,779.00
2022-10-19T06:32:03.863Z,798.00
2022-10-19T06:32:59.363Z,826.00
2022-10-19T06:33:55.668Z,821.00
2022-10-19T06:34:53.046Z,876.00
2022-10-19T06:35:46.674Z,903.00
2022-10-19T06:36:41.003Z,915.00
2022-10-19T06:37:36.475Z,875.00
2022-10-19T06:38:31.786Z,805.00
2022-10-19T06:39:27.199Z,902.00
2022-10-19T06:40:22.666Z,1028.00
2022-10-19T06:41:18.019Z,1140.00
2022-10-19T06:42:13.630Z,1311.00
2022-10-19T06:43:09.052Z,1377.00
2022-10-19T06:44:04.545Z,1277.00
2022-10-19T06:45:00.006Z,1110.00
2022-10-19T06:45:55.450Z,1108.00
2022-10-19T06:46:50.930Z,1224.00
2022-10-19T06:48:42.100Z,1170.00
2022-10-19T06:49:37.418Z,1135.00
2022-10-19T06:50:32.841Z,1236.00
2022-10-19T06:51:28.291Z,1248.00
2022-10-19T06:52:23.760Z,1268.00
2022-10-19T06:53:19.200Z,1396.00
2022-10-19T06:54:14.769Z,1394.00
2022-10-19T06:55:10.114Z,1449.00
2022-10-19T06:56:05.578Z,1364.00
2022-10-19T06:57:01.270Z,1284.00
2022-10-19T06:57:56.585Z,1321.00
2022-10-19T06:58:52.014Z,1226.00
2022-10-19T06:59:50.165Z,1273.00
2022-10-19T07:00:43.999Z,1383.00
2022-10-19T07:01:38.484Z,1418.00
2022-10-19T07:02:33.786Z,1416.00
2022-10-19T07:03:29.315Z,1408.00
2022-10-19T07:04:24.662Z,1706.00
2022-10-19T07:05:20.194Z,1640.00
2022-10-19T07:06:15.754Z,1343.00
2022-10-19T07:07:11.282Z,1516.00
2022-10-19T07:08:06.705Z,1535.00
2022-10-19T07:09:02.177Z,1507.00
2022-10-19T07:09:57.499Z,1710.00
2022-10-19T07:10:52.962Z,1978.00
2022-10-19T07:11:48.385Z,2167.00
2022-10-19T07:12:43.880Z,2078.00
2022-10-19T07:13:39.372Z,1955.00
2022-10-19T07:14:34.842Z,2069.00
2022-10-19T07:15:30.466Z,2060.00
2022-10-19T07:16:25.808Z,2140.00
2022-10-19T07:17:21.301Z,1922.00
2022-10-19T07:18:16.785Z,1912.00
2022-10-19T07:19:12.246Z,2061.00
2022-10-19T07:20:07.703Z,1848.00
2022-10-19T07:21:03.410Z,2167.00
2022-10-19T07:21:58.880Z,2001.00
2022-10-19T07:22:54.369Z,1878.00
2022-10-19T07:23:49.949Z,1886.00
2022-10-19T07:24:45.290Z,1993.00
2022-10-19T07:25:40.822Z,2039.00
2022-10-19T07:26:36.421Z,1952.00
2022-10-19T07:27:35.384Z,2191.00
2022-10-19T07:28:28.401Z,2757.00
2022-10-19T07:29:22.980Z,2991.00
2022-10-19T07:30:18.499Z,2839.00
2022-10-19T07:31:14.126Z,2719.00
2022-10-19T07:32:09.609Z,2269.00
2022-10-19T07:33:05.099Z,2256.00
2022-10-19T07:34:00.734Z,2362.00
2022-10-19T07:34:56.275Z,2369.00
2022-10-19T07:35:51.763Z,2338.00
2022-10-19T07:36:47.291Z,2781.00
2022-10-19T07:37:42.792Z,2979.00
2022-10-19T07:38:38.273Z,3310.00
2022-10-19T07:39:33.688Z,3555.00
2022-10-19T07:40:29.328Z,3530.00
2022-10-19T07:41:24.845Z,3509.00
2022-10-19T07:43:15.945Z,2787.00
2022-10-19T07:44:14.816Z,3149.00
2022-10-19T07:45:06.875Z,3220.00
2022-10-19T07:46:02.273Z,2988.00
2022-10-19T07:46:57.790Z,2768.00
2022-10-19T07:47:53.203Z,3007.00
2022-10-19T07:48:48.680Z,2755.00
2022-10-19T07:49:44.110Z,2559.00
2022-10-19T07:50:39.486Z,2464.00
2022-10-19T07:51:34.972Z,2470.00
2022-10-19T07:52:33.024Z,2355.00
2022-10-19T07:53:26.895Z,2447.00
2022-10-19T07:54:21.225Z,2358.00
2022-10-19T07:55:16.607Z,2437.00
2022-10-19T07:56:12.101Z,2343.00
2022-10-19T07:57:07.636Z,2218.00
2022-10-19T07:58:03.128Z,2198.00
2022-10-19T07:58:58.615Z,2467.00
2022-10-19T07:59:54.245Z,2690.00
2022-10-19T08:00:49.773Z,2775.00
2022-10-19T08:01:45.330Z,2761.00
2022-10-19T08:02:59.910Z,2774.00
2022-10-19T08:05:28.393Z,3117.00
2022-10-19T08:06:22.834Z,3299.00
2022-10-19T08:07:18.303Z,3360.00
2022-10-19T08:08:13.784Z,3372.00
2022-10-19T08:09:09.364Z,3016.00
2022-10-19T08:10:04.971Z,2838.00
2022-10-19T08:11:00.327Z,2733.00
2022-10-19T08:11:55.821Z,2839.00
2022-10-19T08:12:51.316Z,2700.00
2022-10-19T08:13:46.826Z,2722.00
2022-10-19T08:14:42.515Z,2690.00
2022-10-19T08:15:37.996Z,2624.00
2022-10-19T08:16:33.511Z,2865.00
2022-10-19T08:17:29.360Z,3299.00
2022-10-19T08:18:24.772Z,3168.00
2022-10-19T08:19:20.268Z,3015.00
2022-10-19T08:20:15.976Z,3192.00
2022-10-19T08:21:11.333Z,3292.00
2022-10-19T08:22:06.791Z,3151.00
2022-10-19T08:23:02.459Z,3015.00
2022-10-19T08:23:57.932Z,2872.00
2022-10-19T08:24:53.458Z,2690.00
2022-10-19T08:25:48.899Z,2533.00
2022-10-19T08:26:44.375Z,2653.00
2022-10-19T08:27:39.867Z,3065.00
2022-10-19T08:28:35.380Z,2991.00
2022-10-19T08:29:31.699Z,2843.00
2022-10-19T08:30:26.488Z,2711.00
2022-10-19T08:31:21.999Z,2721.00
2022-10-19T08:32:17.532Z,3102.00
2022-10-19T08:33:13.193Z,3378.00
2022-10-19T08:34:08.704Z,3504.00
2022-10-19T08:36:29.864Z,3436.00
2022-10-19T08:37:40.165Z,3819.00
2022-10-19T08:38:20.919Z,4236.00
2022-10-19T08:39:15.237Z,4386.00
2022-10-19T08:40:10.709Z,4409.00
2022-10-19T08:41:06.198Z,4399.00
2022-10-19T08:42:01.866Z,3634.00
2022-10-19T08:42:57.332Z,4412.00
2022-10-19T08:43:52.816Z,4541.00
2022-10-19T08:44:48.253Z,4765.00
2022-10-19T08:45:43.653Z,5231.00
2022-10-19T08:46:39.131Z,5167.00
2022-10-19T08:47:34.687Z,4997.00
2022-10-19T08:48:30.054Z,4623.00
2022-10-19T08:49:25.562Z,3973.00
2022-10-19T08:50:21.077Z,3974.00
2022-10-19T08:51:16.614Z,5508.00
2022-10-19T08:52:12.035Z,5900.00
2022-10-19T08:53:07.424Z,5823.00
2022-10-19T08:54:02.934Z,5683.00
2022-10-19T08:54:58.357Z,5475.00
2022-10-19T08:55:53.779Z,5298.00
2022-10-19T08:56:51.691Z,5300.00
2022-10-19T08:57:44.568Z,5330.00
2022-10-19T08:58:39.975Z,5422.00
2022-10-19T08:59:35.484Z,5778.00
2022-10-19T09:00:30.780Z,5690.00
2022-10-19T09:01:26.193Z,5771.00
2022-10-19T09:02:21.627Z,5558.00
2022-10-19T09:03:23.057Z,5532.00
2022-10-19T09:04:13.413Z,5099.00
2022-10-19T09:05:07.982Z,4083.00
2022-10-19T09:06:03.460Z,3598.00
2022-10-19T09:06:58.971Z,3689.00
2022-10-19T09:07:54.349Z,3690.00
2022-10-19T09:08:50.067Z,3402.00
2022-10-19T09:10:41.033Z,3071.00
2022-10-19T09:11:36.542Z,2613.00
2022-10-19T09:12:32.201Z,2446.00
2022-10-19T09:13:36.459Z,3180.00
2022-10-19T09:14:23.961Z,4062.00
2022-10-19T09:15:18.264Z,3939.00
2022-10-19T09:16:13.767Z,3610.00
2022-10-19T09:17:09.317Z,4109.00
2022-10-19T09:18:04.979Z,4625.00
2022-10-19T09:19:00.485Z,4780.00
2022-10-19T09:19:56.136Z,5286.00
2022-10-19T09:20:51.641Z,5240.00
2022-10-19T09:21:47.826Z,4787.00
2022-10-19T09:22:42.649Z,4734.00
2022-10-19T09:23:38.137Z,4700.00
2022-10-19T09:24:33.655Z,4260.00
2022-10-19T09:25:29.336Z,3829.00
2022-10-19T09:26:24.604Z,3373.00
2022-10-19T09:27:20.012Z,3399.00
2022-10-19T09:28:15.504Z,2845.00
2022-10-19T09:29:11.045Z,2615.00
2022-10-19T09:30:06.525Z,2469.00
2022-10-19T09:31:02.002Z,2748.00
2022-10-19T09:32:52.872Z,2867.00
2022-10-19T09:33:48.366Z,2913.00
2022-10-19T09:34:43.851Z,2849.00
2022-10-19T09:35:39.354Z,2691.00
2022-10-19T09:36:50.077Z,2947.00
2022-10-19T09:37:31.362Z,3473.00
2022-10-19T09:38:25.676Z,3395.00
2022-10-19T09:39:22.614Z,2621.00
2022-10-19T09:40:16.615Z,3407.00
2022-10-19T09:41:11.892Z,3092.00
2022-10-19T09:42:07.376Z,2260.00
2022-10-19T09:43:02.877Z,3335.00
2022-10-19T09:43:58.276Z,3315.00
2022-10-19T09:44:53.864Z,3988.00
2022-10-19T09:45:49.226Z,3947.00
2022-10-19T09:47:40.027Z,4343.00
2022-10-19T09:48:35.560Z,4406.00
2022-10-19T09:49:31.077Z,4441.00
2022-10-19T09:50:26.626Z,4480.00
2022-10-19T09:51:22.015Z,4544.00
2022-10-19T09:52:17.513Z,4574.00
2022-10-19T09:53:12.997Z,4527.00
2022-10-19T09:54:08.649Z,4407.00
2022-10-19T09:55:04.244Z,4343.00
2022-10-19T09:55:59.497Z,4290.00
2022-10-19T09:56:54.933Z,4372.00
2022-10-19T09:57:50.428Z,4137.00
2022-10-19T09:58:46.036Z,3380.00
2022-10-19T09:59:41.528Z,3373.00
2022-10-19T10:00:37.201Z,3118.00
2022-10-19T10:01:41.758Z,3391.00
2022-10-19T10:02:29.464Z,3828.00
2022-10-19T10:03:23.715Z,3946.00
2022-10-19T10:04:19.299Z,4059.00
2022-10-19T10:05:14.802Z,3851.00
2022-10-19T10:06:10.199Z,3567.00
2022-10-19T10:07:05.737Z,3792.00
2022-10-19T10:08:01.237Z,4103.00
2022-10-19T10:08:56.642Z,4290.00
2022-10-19T10:09:52.181Z,4413.00
2022-10-19T10:10:47.680Z,4505.00
2022-10-19T10:11:43.258Z,4463.00
2022-10-19T10:12:38.765Z,3844.00
2022-10-19T10:13:34.262Z,3734.00
2022-10-19T10:14:29.758Z,3432.00
2022-10-19T10:15:25.298Z,3995.00
2022-10-19T10:16:20.842Z,4291.00
2022-10-19T10:17:16.333Z,3965.00
2022-10-19T10:18:11.822Z,3781.00
2022-10-19T10:19:07.306Z,3688.00
2022-10-19T10:20:02.849Z,3963.00
2022-10-19T10:20:58.504Z,4103.00
2022-10-19T10:21:53.996Z,4429.00
2022-10-19T10:22:49.479Z,3974.00
2022-10-19T10:23:45.031Z,3554.00
2022-10-19T10:24:40.505Z,3134.00
2022-10-19T10:25:36.010Z,2803.00
2022-10-19T10:26:31.746Z,2776.00
2022-10-19T10:27:27.411Z,2997.00
2022-10-19T10:28:22.757Z,3009.00
2022-10-19T10:29:18.299Z,3005.00
2022-10-19T10:30:13.807Z,3173.00
2022-10-19T10:31:09.285Z,3091.00
2022-10-19T10:32:04.924Z,2784.00
2022-10-19T10:33:08.206Z,2573.00
2022-10-19T10:33:56.922Z,2577.00
2022-10-19T10:34:54.901Z,3278.00
2022-10-19T10:35:47.706Z,3062.00
2022-10-19T10:36:42.279Z,3101.00
2022-10-19T10:37:37.774Z,3120.00
2022-10-19T10:38:33.257Z,3097.00
2022-10-19T10:39:28.796Z,3353.00
2022-10-19T10:40:24.249Z,3467.00
2022-10-19T10:41:19.640Z,4241.00
2022-10-19T10:42:15.290Z,5522.00
2022-10-19T10:43:10.944Z,4786.00
2022-10-19T10:44:06.303Z,5499.00
2022-10-19T10:45:01.824Z,5494.00
2022-10-19T10:45:57.317Z,5173.00
2022-10-19T10:46:52.659Z,5373.00
2022-10-19T10:47:48.186Z,4880.00
2022-10-19T10:48:43.808Z,5142.00
2022-10-19T10:49:39.303Z,5408.00
2022-10-19T10:50:34.742Z,6059.00
2022-10-19T10:51:30.216Z,5750.00
2022-10-19T10:52:25.732Z,5877.00
2022-10-19T10:53:21.387Z,5782.00
2022-10-19T10:54:16.894Z,5450.00
2022-10-19T10:55:12.344Z,5707.00
2022-10-19T10:56:07.823Z,6017.00
2022-10-19T10:57:06.326Z,6113.00
2022-10-19T10:57:58.867Z,6727.00
2022-10-19T10:58:54.255Z,6624.00
2022-10-19T10:59:49.684Z,6579.00
2022-10-19T11:00:45.144Z,6634.00
2022-10-19T11:01:40.636Z,6838.00
2022-10-19T11:02:36.265Z,6630.00
2022-10-19T11:03:31.692Z,6083.00
2022-10-19T11:04:27.104Z,5981.00
2022-10-19T11:05:22.581Z,5903.00
2022-10-19T11:06:17.951Z,4760.00
2022-10-19T11:07:13.488Z,4222.00
2022-10-19T11:08:08.798Z,5312.00
2022-10-19T11:09:04.517Z,5527.00
2022-10-19T11:09:59.968Z,5498.00
2022-10-19T11:10:55.353Z,6797.00
2022-10-19T11:11:50.790Z,6646.00
2022-10-19T11:12:46.274Z,6290.00
2022-10-19T11:13:41.712Z,6436.00
2022-10-19T11:14:37.022Z,4802.00
2022-10-19T11:15:32.503Z,4479.00
2022-10-19T11:16:27.895Z,5235.00
2022-10-19T11:17:23.378Z,4900.00
2022-10-19T11:18:18.938Z,3737.00
2022-10-19T11:20:09.928Z,3845.00
2022-10-19T11:21:05.419Z,4026.00
2022-10-19T11:22:00.868Z,4111.00
2022-10-19T11:22:56.348Z,4697.00
2022-10-19T11:23:51.976Z,4449.00
2022-10-19T11:24:48.724Z,3763.00
2022-10-19T11:25:42.805Z,4388.00
2022-10-19T11:26:38.424Z,4273.00
2022-10-19T11:27:34.254Z,4559.00
2022-10-19T11:28:29.385Z,3985.00
2022-10-19T11:29:25.032Z,3541.00
2022-10-19T11:30:20.560Z,3531.00
2022-10-19T11:31:15.997Z,3663.00
2022-10-19T11:32:11.590Z,3987.00
2022-10-19T11:33:07.078Z,4248.00
2022-10-19T11:34:02.693Z,4114.00
2022-10-19T11:34:58.075Z,3909.00
2022-10-19T11:35:53.423Z,3848.00
2022-10-19T11:36:48.883Z,3783.00
2022-10-19T11:37:49.872Z,3667.00
2022-10-19T11:38:40.786Z,3529.00
2022-10-19T11:39:35.208Z,3639.00
2022-10-19T11:40:30.816Z,3875.00
2022-10-19T11:41:26.281Z,4043.00
2022-10-19T11:42:21.779Z,3635.00
2022-10-19T11:43:17.280Z,3864.00
2022-10-19T11:44:12.751Z,4037.00
2022-10-19T11:45:08.266Z,3619.00
2022-10-19T11:46:03.843Z,3222.00
2022-10-19T11:46:59.338Z,3504.00
2022-10-19T11:47:54.768Z,4724.00
2022-10-19T11:48:54.160Z,5580.00
2022-10-19T11:49:45.702Z,7727.00
2022-10-19T11:50:44.130Z,7520.00
2022-10-19T11:51:37.765Z,6757.00
2022-10-19T11:52:32.494Z,6599.00
2022-10-19T11:53:27.811Z,6703.00